Weather at Sepulot Airport

Public forecast

Using degrees Celsius for public forecast. Weather courtesy of forecast.io.

Closest aviation weather report (METAR) to Sepulot Airport

Closest report is Kota Kinabalu International Airport, 76.2 nm (141.2 km) NNW.

2024/05/27 20:30 (retrieved 33 minutes ago)

WBKK 272030Z 11004KT 9999 FEW014 27/25 Q1008 NOSIG

Closest aviation forecast (TAF) to Sepulot Airport

Closest forecast is Kota Kinabalu International Airport, 76.2 nm (141.2 km) NNW.

2024/05/27 18:10 (retrieved 3 hours ago)

TAF WBKK 271700Z 2718/2818 12005KT 9999 FEW014 TEMPO 2806/2809 5000 TSRA FEW013 FEW016CB